Portada
METAR-TAF:

METAR-TAF

Aeroports :

Calcuta, Índia

latitud: 22-39N, longitud: 088-27E, altitud: 4 m

Observació

L'informe es va fer fa 15 minuts, a les 19:30 UTC
Vent 6 kt del Est/Sud-Est
Temperatura 29°C
Humitat 94%
Pressió 996 hPa
Visibilitat: 2800 m
Núvols disperses a una alçada de 1800 ft
Cel ennuvolat a una alçada de 9000 ft
calitja

METAR: VECC 231930Z 12006KT 2800 HZ SCT018 BKN090 29/28 Q0996 NOSIG

Hora: 01:15 (19:45 UTC)

Pronòstic

L'informe es va fer fa 2 hores i 45 minuts, a les 17:00 UTC
Pronòstic vàlid del 23 a les 18 UTC al 24 a les 03 UTC
Vent 7 kt del Sud-Est
Visibilitat: 3200 m
Núvols disperses a una alçada de 1800 ft
Cel ennuvolat a una alçada de 9000 ft
pluja, calitja
Evolucionant progressivament
l' 23 a les 22 UTC al 23 a les 24 UTC
Visibilitat: 2500 m
pluja, calitja

TAF: VECC 231700Z 2318/2403 14007KT 3200 -RA HZ SCT018 BKN090 BECMG 2322/2324 2500 -RA HZ

Observacions i pronòstics meteorològics de més de 4000 aeroports (METAR i TAF).

Les estacions disponibles són els punts grocs i vermells al mapa.

Posi el ratolí al punt desitjat per veure el nom de l'estació.

Feu clic per veure les observacions i els pronòstics meteorològics.

Per canviar el mapa: feu clic els botons verds amb una creu de color negre per apropar; al botó verd amb un guió per allunyar la imatge; o en les fletxes verdes per a mapes adjacents.


METAR-TAF: